sensor_id;sensor_type;location;lat;lon;timestamp;P1;durP1;ratioP1;P2;durP2;ratioP2
37805;SDS011;25082;50.870;0.022;2022-12-20T00:00:43;10.82;;;3.67;;
37805;SDS011;25082;50.870;0.022;2022-12-20T00:03:09;8.98;;;3.55;;
37805;SDS011;25082;50.870;0.022;2022-12-20T00:05:36;11.77;;;3.83;;
37805;SDS011;25082;50.870;0.022;2022-12-20T00:08:02;9.18;;;3.75;;
37805;SDS011;25082;50.870;0.022;2022-12-20T00:10:29;12.52;;;3.67;;
37805;SDS011;25082;50.870;0.022;2022-12-20T00:12:54;9.68;;;3.40;;
37805;SDS011;25082;50.870;0.022;2022-12-20T00:15:20;11.52;;;3.30;;
37805;SDS011;25082;50.870;0.022;2022-12-20T00:17:46;9.82;;;3.80;;
37805;SDS011;25082;50.870;0.022;2022-12-20T00:20:12;10.73;;;3.55;;
37805;SDS011;25082;50.870;0.022;2022-12-20T00:22:37;11.98;;;3.55;;
37805;SDS011;25082;50.870;0.022;2022-12-20T00:25:03;9.90;;;3.72;;
37805;SDS011;25082;50.870;0.022;2022-12-20T00:27:29;12.40;;;3.55;;
37805;SDS011;25082;50.870;0.022;2022-12-20T00:29:55;9.50;;;3.08;;
37805;SDS011;25082;50.870;0.022;2022-12-20T00:32:21;11.55;;;3.75;;
37805;SDS011;25082;50.870;0.022;2022-12-20T00:34:46;10.02;;;3.58;;
37805;SDS011;25082;50.870;0.022;2022-12-20T00:37:12;10.27;;;3.85;;
37805;SDS011;25082;50.870;0.022;2022-12-20T00:39:38;10.98;;;3.25;;
37805;SDS011;25082;50.870;0.022;2022-12-20T00:42:04;10.00;;;3.28;;
37805;SDS011;25082;50.870;0.022;2022-12-20T00:44:30;8.68;;;3.42;;
37805;SDS011;25082;50.870;0.022;2022-12-20T00:46:55;8.77;;;3.20;;
37805;SDS011;25082;50.870;0.022;2022-12-20T00:49:21;9.23;;;3.30;;
37805;SDS011;25082;50.870;0.022;2022-12-20T00:51:47;12.00;;;3.90;;
37805;SDS011;25082;50.870;0.022;2022-12-20T00:54:13;10.30;;;3.47;;
37805;SDS011;25082;50.870;0.022;2022-12-20T00:56:38;11.60;;;3.28;;
37805;SDS011;25082;50.870;0.022;2022-12-20T00:59:04;11.23;;;3.50;;
37805;SDS011;25082;50.870;0.022;2022-12-20T01:01:31;13.43;;;4.32;;
37805;SDS011;25082;50.870;0.022;2022-12-20T01:03:58;12.25;;;3.30;;
37805;SDS011;25082;50.870;0.022;2022-12-20T01:06:25;6.80;;;3.03;;
37805;SDS011;25082;50.870;0.022;2022-12-20T01:08:51;9.38;;;3.70;;
37805;SDS011;25082;50.870;0.022;2022-12-20T01:11:25;10.93;;;3.70;;
37805;SDS011;25082;50.870;0.022;2022-12-20T01:13:53;10.63;;;3.45;;
37805;SDS011;25082;50.870;0.022;2022-12-20T01:16:22;9.88;;;3.13;;
37805;SDS011;25082;50.870;0.022;2022-12-20T01:18:50;9.35;;;3.47;;
37805;SDS011;25082;50.870;0.022;2022-12-20T01:21:17;8.48;;;3.22;;
37805;SDS011;25082;50.870;0.022;2022-12-20T01:23:45;9.55;;;3.50;;
37805;SDS011;25082;50.870;0.022;2022-12-20T01:26:13;8.35;;;3.35;;
37805;SDS011;25082;50.870;0.022;2022-12-20T01:28:42;9.82;;;3.28;;
37805;SDS011;25082;50.870;0.022;2022-12-20T01:31:10;8.25;;;3.15;;
37805;SDS011;25082;50.870;0.022;2022-12-20T01:33:38;9.00;;;3.13;;
37805;SDS011;25082;50.870;0.022;2022-12-20T01:36:05;10.27;;;3.10;;
37805;SDS011;25082;50.870;0.022;2022-12-20T01:38:34;11.13;;;3.35;;
37805;SDS011;25082;50.870;0.022;2022-12-20T01:41:00;9.95;;;3.40;;
37805;SDS011;25082;50.870;0.022;2022-12-20T01:43:46;11.02;;;3.83;;
37805;SDS011;25082;50.870;0.022;2022-12-20T01:46:18;8.50;;;3.30;;
37805;SDS011;25082;50.870;0.022;2022-12-20T01:48:48;8.40;;;3.65;;
37805;SDS011;25082;50.870;0.022;2022-12-20T01:53:43;11.18;;;3.35;;
37805;SDS011;25082;50.870;0.022;2022-12-20T01:56:10;9.98;;;3.40;;
37805;SDS011;25082;50.870;0.022;2022-12-20T01:58:36;10.20;;;3.25;;
37805;SDS011;25082;50.870;0.022;2022-12-20T02:01:03;9.75;;;2.92;;
37805;SDS011;25082;50.870;0.022;2022-12-20T02:03:29;9.45;;;3.40;;
37805;SDS011;25082;50.870;0.022;2022-12-20T02:05:56;9.13;;;3.80;;
37805;SDS011;25082;50.870;0.022;2022-12-20T02:08:23;11.35;;;3.60;;
37805;SDS011;25082;50.870;0.022;2022-12-20T02:11:00;11.43;;;3.25;;
37805;SDS011;25082;50.870;0.022;2022-12-20T02:14:07;9.15;;;3.70;;
37805;SDS011;25082;50.870;0.022;2022-12-20T02:16:45;8.68;;;3.65;;
37805;SDS011;25082;50.870;0.022;2022-12-20T02:27:34;8.73;;;3.35;;
37805;SDS011;25082;50.870;0.022;2022-12-20T02:30:13;9.50;;;3.30;;
37805;SDS011;25082;50.870;0.022;2022-12-20T02:32:50;9.63;;;2.97;;
37805;SDS011;25082;50.870;0.022;2022-12-20T02:35:27;7.80;;;3.03;;
37805;SDS011;25082;50.870;0.022;2022-12-20T02:37:59;10.15;;;3.45;;
37805;SDS011;25082;50.870;0.022;2022-12-20T02:40:32;10.25;;;3.55;;
37805;SDS011;25082;50.870;0.022;2022-12-20T02:43:03;9.52;;;3.10;;
37805;SDS011;25082;50.870;0.022;2022-12-20T02:45:50;9.40;;;2.95;;
37805;SDS011;25082;50.870;0.022;2022-12-20T02:48:16;10.13;;;2.88;;
37805;SDS011;25082;50.870;0.022;2022-12-20T02:50:45;9.88;;;3.83;;
37805;SDS011;25082;50.870;0.022;2022-12-20T02:53:14;9.35;;;3.10;;
37805;SDS011;25082;50.870;0.022;2022-12-20T02:55:52;8.32;;;3.10;;
37805;SDS011;25082;50.870;0.022;2022-12-20T02:58:34;9.60;;;3.10;;
37805;SDS011;25082;50.870;0.022;2022-12-20T03:03:46;9.13;;;3.40;;
37805;SDS011;25082;50.870;0.022;2022-12-20T03:06:12;9.40;;;3.30;;
37805;SDS011;25082;50.870;0.022;2022-12-20T03:08:38;8.07;;;2.42;;
37805;SDS011;25082;50.870;0.022;2022-12-20T03:11:04;12.20;;;3.33;;
37805;SDS011;25082;50.870;0.022;2022-12-20T03:13:30;7.00;;;2.50;;
37805;SDS011;25082;50.870;0.022;2022-12-20T03:15:55;11.82;;;3.50;;
37805;SDS011;25082;50.870;0.022;2022-12-20T03:18:21;6.80;;;2.58;;
37805;SDS011;25082;50.870;0.022;2022-12-20T03:20:47;9.73;;;3.10;;
37805;SDS011;25082;50.870;0.022;2022-12-20T03:23:12;7.60;;;3.05;;
37805;SDS011;25082;50.870;0.022;2022-12-20T03:25:38;8.38;;;2.70;;
37805;SDS011;25082;50.870;0.022;2022-12-20T03:28:04;10.35;;;2.95;;
37805;SDS011;25082;50.870;0.022;2022-12-20T03:30:30;8.80;;;3.33;;
37805;SDS011;25082;50.870;0.022;2022-12-20T03:32:56;11.00;;;3.42;;
37805;SDS011;25082;50.870;0.022;2022-12-20T03:35:22;9.70;;;2.60;;
37805;SDS011;25082;50.870;0.022;2022-12-20T03:37:47;7.38;;;2.90;;
37805;SDS011;25082;50.870;0.022;2022-12-20T03:40:13;8.85;;;3.67;;
37805;SDS011;25082;50.870;0.022;2022-12-20T03:42:40;8.18;;;3.05;;
37805;SDS011;25082;50.870;0.022;2022-12-20T03:45:06;6.35;;;2.67;;
37805;SDS011;25082;50.870;0.022;2022-12-20T03:47:32;8.43;;;3.17;;
37805;SDS011;25082;50.870;0.022;2022-12-20T03:49:57;11.75;;;3.22;;
37805;SDS011;25082;50.870;0.022;2022-12-20T03:52:23;10.02;;;3.50;;
37805;SDS011;25082;50.870;0.022;2022-12-20T03:54:49;10.65;;;3.55;;
37805;SDS011;25082;50.870;0.022;2022-12-20T03:57:15;7.38;;;2.88;;
37805;SDS011;25082;50.870;0.022;2022-12-20T03:59:40;8.68;;;3.05;;
37805;SDS011;25082;50.870;0.022;2022-12-20T04:02:07;11.02;;;3.30;;
37805;SDS011;25082;50.870;0.022;2022-12-20T04:04:33;11.95;;;3.35;;
37805;SDS011;25082;50.870;0.022;2022-12-20T04:06:58;8.60;;;3.60;;
37805;SDS011;25082;50.870;0.022;2022-12-20T04:09:24;8.55;;;2.80;;
37805;SDS011;25082;50.870;0.022;2022-12-20T04:11:50;7.95;;;3.05;;
37805;SDS011;25082;50.870;0.022;2022-12-20T04:14:16;6.43;;;3.08;;
37805;SDS011;25082;50.870;0.022;2022-12-20T04:16:41;9.52;;;3.03;;
37805;SDS011;25082;50.870;0.022;2022-12-20T04:19:07;8.93;;;3.22;;
37805;SDS011;25082;50.870;0.022;2022-12-20T04:21:34;8.10;;;3.28;;
37805;SDS011;25082;50.870;0.022;2022-12-20T04:24:00;9.80;;;3.20;;
37805;SDS011;25082;50.870;0.022;2022-12-20T04:26:28;9.00;;;3.50;;
37805;SDS011;25082;50.870;0.022;2022-12-20T04:28:54;10.07;;;3.65;;
37805;SDS011;25082;50.870;0.022;2022-12-20T04:31:20;9.35;;;3.60;;
37805;SDS011;25082;50.870;0.022;2022-12-20T04:33:46;9.43;;;3.22;;
37805;SDS011;25082;50.870;0.022;2022-12-20T04:36:13;11.40;;;3.58;;
37805;SDS011;25082;50.870;0.022;2022-12-20T04:38:39;9.52;;;3.20;;
37805;SDS011;25082;50.870;0.022;2022-12-20T04:41:05;10.25;;;3.65;;
37805;SDS011;25082;50.870;0.022;2022-12-20T04:43:31;10.80;;;4.30;;
37805;SDS011;25082;50.870;0.022;2022-12-20T04:45:56;10.00;;;4.00;;
37805;SDS011;25082;50.870;0.022;2022-12-20T04:48:23;9.18;;;4.00;;
37805;SDS011;25082;50.870;0.022;2022-12-20T04:50:53;8.18;;;3.28;;
37805;SDS011;25082;50.870;0.022;2022-12-20T04:53:20;11.35;;;3.90;;
37805;SDS011;25082;50.870;0.022;2022-12-20T04:56:05;10.00;;;3.53;;
37805;SDS011;25082;50.870;0.022;2022-12-20T04:58:32;8.90;;;4.38;;
37805;SDS011;25082;50.870;0.022;2022-12-20T05:00:58;9.70;;;3.83;;
37805;SDS011;25082;50.870;0.022;2022-12-20T05:03:23;11.00;;;3.10;;
37805;SDS011;25082;50.870;0.022;2022-12-20T05:05:50;9.93;;;4.07;;
37805;SDS011;25082;50.870;0.022;2022-12-20T05:08:16;13.13;;;4.30;;
37805;SDS011;25082;50.870;0.022;2022-12-20T05:10:42;9.20;;;3.65;;
37805;SDS011;25082;50.870;0.022;2022-12-20T05:13:08;11.65;;;3.63;;
37805;SDS011;25082;50.870;0.022;2022-12-20T05:15:35;11.70;;;3.92;;
37805;SDS011;25082;50.870;0.022;2022-12-20T05:18:01;11.82;;;3.30;;
37805;SDS011;25082;50.870;0.022;2022-12-20T05:20:30;9.35;;;4.00;;
37805;SDS011;25082;50.870;0.022;2022-12-20T05:22:56;11.48;;;4.22;;
37805;SDS011;25082;50.870;0.022;2022-12-20T05:25:48;8.52;;;3.55;;
37805;SDS011;25082;50.870;0.022;2022-12-20T05:28:26;12.82;;;3.85;;
37805;SDS011;25082;50.870;0.022;2022-12-20T05:30:52;7.97;;;3.38;;
37805;SDS011;25082;50.870;0.022;2022-12-20T05:33:18;9.07;;;3.42;;
37805;SDS011;25082;50.870;0.022;2022-12-20T05:35:44;8.35;;;3.92;;
37805;SDS011;25082;50.870;0.022;2022-12-20T05:38:09;9.77;;;3.85;;
37805;SDS011;25082;50.870;0.022;2022-12-20T05:40:35;9.27;;;3.80;;
37805;SDS011;25082;50.870;0.022;2022-12-20T05:43:01;7.88;;;3.95;;
37805;SDS011;25082;50.870;0.022;2022-12-20T05:45:27;11.20;;;4.15;;
37805;SDS011;25082;50.870;0.022;2022-12-20T05:47:53;10.73;;;3.90;;
37805;SDS011;25082;50.870;0.022;2022-12-20T05:50:19;10.48;;;4.20;;
37805;SDS011;25082;50.870;0.022;2022-12-20T05:52:44;9.38;;;4.13;;
37805;SDS011;25082;50.870;0.022;2022-12-20T05:55:10;7.07;;;3.13;;
37805;SDS011;25082;50.870;0.022;2022-12-20T05:57:36;7.28;;;3.25;;
37805;SDS011;25082;50.870;0.022;2022-12-20T06:00:03;12.15;;;3.88;;
37805;SDS011;25082;50.870;0.022;2022-12-20T06:02:29;13.80;;;4.00;;
37805;SDS011;25082;50.870;0.022;2022-12-20T06:04:55;9.10;;;3.55;;
37805;SDS011;25082;50.870;0.022;2022-12-20T06:07:22;8.15;;;4.00;;
37805;SDS011;25082;50.870;0.022;2022-12-20T06:09:48;7.22;;;3.50;;
37805;SDS011;25082;50.870;0.022;2022-12-20T06:12:14;9.85;;;4.20;;
37805;SDS011;25082;50.870;0.022;2022-12-20T06:14:39;10.30;;;4.00;;
37805;SDS011;25082;50.870;0.022;2022-12-20T06:17:05;7.55;;;3.30;;
37805;SDS011;25082;50.870;0.022;2022-12-20T06:19:31;10.02;;;3.85;;
37805;SDS011;25082;50.870;0.022;2022-12-20T06:21:57;13.07;;;4.00;;
37805;SDS011;25082;50.870;0.022;2022-12-20T06:24:22;11.57;;;3.92;;
37805;SDS011;25082;50.870;0.022;2022-12-20T06:26:50;10.02;;;4.18;;
37805;SDS011;25082;50.870;0.022;2022-12-20T06:29:16;10.15;;;3.67;;
37805;SDS011;25082;50.870;0.022;2022-12-20T06:31:44;14.20;;;4.28;;
37805;SDS011;25082;50.870;0.022;2022-12-20T06:34:09;10.38;;;3.63;;
37805;SDS011;25082;50.870;0.022;2022-12-20T06:36:35;8.85;;;3.78;;
37805;SDS011;25082;50.870;0.022;2022-12-20T06:39:01;10.35;;;3.63;;
37805;SDS011;25082;50.870;0.022;2022-12-20T06:41:27;10.43;;;3.97;;
37805;SDS011;25082;50.870;0.022;2022-12-20T06:43:53;10.25;;;3.95;;
37805;SDS011;25082;50.870;0.022;2022-12-20T06:46:18;9.70;;;3.78;;
37805;SDS011;25082;50.870;0.022;2022-12-20T06:48:44;11.40;;;3.65;;
37805;SDS011;25082;50.870;0.022;2022-12-20T06:51:10;12.70;;;4.20;;
37805;SDS011;25082;50.870;0.022;2022-12-20T06:53:36;10.35;;;3.47;;
37805;SDS011;25082;50.870;0.022;2022-12-20T06:56:02;9.48;;;4.30;;
37805;SDS011;25082;50.870;0.022;2022-12-20T06:58:28;8.73;;;3.58;;
37805;SDS011;25082;50.870;0.022;2022-12-20T07:00:53;8.77;;;3.50;;
37805;SDS011;25082;50.870;0.022;2022-12-20T07:03:19;7.85;;;3.83;;
37805;SDS011;25082;50.870;0.022;2022-12-20T07:05:49;10.00;;;3.00;;
37805;SDS011;25082;50.870;0.022;2022-12-20T07:10:43;6.78;;;3.15;;
37805;SDS011;25082;50.870;0.022;2022-12-20T07:13:09;13.43;;;4.28;;
37805;SDS011;25082;50.870;0.022;2022-12-20T07:15:35;8.35;;;3.17;;
37805;SDS011;25082;50.870;0.022;2022-12-20T07:18:01;13.98;;;4.32;;
37805;SDS011;25082;50.870;0.022;2022-12-20T07:20:27;8.57;;;3.30;;
37805;SDS011;25082;50.870;0.022;2022-12-20T07:22:53;9.77;;;3.50;;
37805;SDS011;25082;50.870;0.022;2022-12-20T07:25:19;10.18;;;4.15;;
37805;SDS011;25082;50.870;0.022;2022-12-20T07:27:46;13.00;;;3.60;;
37805;SDS011;25082;50.870;0.022;2022-12-20T07:30:14;9.40;;;3.20;;
37805;SDS011;25082;50.870;0.022;2022-12-20T07:32:40;9.52;;;4.15;;
37805;SDS011;25082;50.870;0.022;2022-12-20T07:35:06;8.27;;;3.72;;
37805;SDS011;25082;50.870;0.022;2022-12-20T07:37:34;8.90;;;3.28;;
37805;SDS011;25082;50.870;0.022;2022-12-20T07:40:00;7.50;;;3.17;;
37805;SDS011;25082;50.870;0.022;2022-12-20T07:42:26;9.40;;;3.20;;
37805;SDS011;25082;50.870;0.022;2022-12-20T07:44:51;9.32;;;3.40;;
37805;SDS011;25082;50.870;0.022;2022-12-20T07:47:17;10.32;;;3.10;;
37805;SDS011;25082;50.870;0.022;2022-12-20T07:49:43;9.38;;;3.50;;
37805;SDS011;25082;50.870;0.022;2022-12-20T07:52:09;8.95;;;3.53;;
37805;SDS011;25082;50.870;0.022;2022-12-20T07:54:39;7.60;;;3.05;;
37805;SDS011;25082;50.870;0.022;2022-12-20T07:57:11;6.90;;;3.22;;
37805;SDS011;25082;50.870;0.022;2022-12-20T07:59:50;7.80;;;3.00;;
37805;SDS011;25082;50.870;0.022;2022-12-20T08:02:20;11.75;;;3.30;;
37805;SDS011;25082;50.870;0.022;2022-12-20T08:05:10;9.30;;;3.35;;
37805;SDS011;25082;50.870;0.022;2022-12-20T08:07:37;5.65;;;2.88;;
37805;SDS011;25082;50.870;0.022;2022-12-20T08:10:06;8.35;;;3.00;;
37805;SDS011;25082;50.870;0.022;2022-12-20T08:12:35;9.80;;;2.90;;
37805;SDS011;25082;50.870;0.022;2022-12-20T08:15:02;7.18;;;3.05;;
37805;SDS011;25082;50.870;0.022;2022-12-20T08:17:28;12.77;;;3.72;;
37805;SDS011;25082;50.870;0.022;2022-12-20T08:19:54;8.50;;;3.20;;
37805;SDS011;25082;50.870;0.022;2022-12-20T08:22:21;12.63;;;3.15;;
37805;SDS011;25082;50.870;0.022;2022-12-20T08:24:47;8.77;;;3.28;;
37805;SDS011;25082;50.870;0.022;2022-12-20T08:27:13;9.93;;;3.40;;
37805;SDS011;25082;50.870;0.022;2022-12-20T08:29:39;9.35;;;3.45;;
37805;SDS011;25082;50.870;0.022;2022-12-20T08:32:05;14.35;;;3.25;;
37805;SDS011;25082;50.870;0.022;2022-12-20T08:34:31;11.25;;;3.17;;
37805;SDS011;25082;50.870;0.022;2022-12-20T08:36:58;8.23;;;2.80;;
37805;SDS011;25082;50.870;0.022;2022-12-20T08:39:24;9.02;;;3.35;;
37805;SDS011;25082;50.870;0.022;2022-12-20T08:41:49;9.55;;;3.15;;
37805;SDS011;25082;50.870;0.022;2022-12-20T08:44:15;6.43;;;2.50;;
37805;SDS011;25082;50.870;0.022;2022-12-20T08:46:41;7.85;;;2.53;;
37805;SDS011;25082;50.870;0.022;2022-12-20T08:49:07;12.95;;;2.67;;
37805;SDS011;25082;50.870;0.022;2022-12-20T08:51:32;6.75;;;2.30;;
37805;SDS011;25082;50.870;0.022;2022-12-20T08:53:58;8.38;;;3.17;;
37805;SDS011;25082;50.870;0.022;2022-12-20T08:56:24;8.50;;;2.72;;
37805;SDS011;25082;50.870;0.022;2022-12-20T08:58:50;9.80;;;3.05;;
37805;SDS011;25082;50.870;0.022;2022-12-20T09:01:16;17.75;;;3.03;;
37805;SDS011;25082;50.870;0.022;2022-12-20T09:03:43;6.70;;;2.50;;
37805;SDS011;25082;50.870;0.022;2022-12-20T09:06:14;7.72;;;2.80;;
37805;SDS011;25082;50.870;0.022;2022-12-20T09:08:42;5.65;;;2.40;;
37805;SDS011;25082;50.870;0.022;2022-12-20T09:11:12;9.95;;;2.90;;
37805;SDS011;25082;50.870;0.022;2022-12-20T09:13:41;7.13;;;2.78;;
37805;SDS011;25082;50.870;0.022;2022-12-20T09:16:09;11.57;;;3.03;;
37805;SDS011;25082;50.870;0.022;2022-12-20T09:18:35;35.33;;;4.68;;
37805;SDS011;25082;50.870;0.022;2022-12-20T09:21:02;19.15;;;3.65;;
37805;SDS011;25082;50.870;0.022;2022-12-20T09:23:29;40.88;;;6.13;;
37805;SDS011;25082;50.870;0.022;2022-12-20T09:26:00;29.02;;;4.35;;
37805;SDS011;25082;50.870;0.022;2022-12-20T09:28:30;20.70;;;4.32;;
37805;SDS011;25082;50.870;0.022;2022-12-20T09:31:00;18.92;;;3.55;;
37805;SDS011;25082;50.870;0.022;2022-12-20T09:33:27;15.70;;;3.80;;
37805;SDS011;25082;50.870;0.022;2022-12-20T09:35:54;26.38;;;4.78;;
37805;SDS011;25082;50.870;0.022;2022-12-20T09:38:21;28.25;;;5.10;;
37805;SDS011;25082;50.870;0.022;2022-12-20T09:40:47;28.42;;;4.10;;
37805;SDS011;25082;50.870;0.022;2022-12-20T09:43:19;22.60;;;4.75;;
37805;SDS011;25082;50.870;0.022;2022-12-20T09:45:46;25.13;;;4.25;;
37805;SDS011;25082;50.870;0.022;2022-12-20T09:48:16;20.10;;;4.65;;
37805;SDS011;25082;50.870;0.022;2022-12-20T09:50:50;17.83;;;4.03;;
37805;SDS011;25082;50.870;0.022;2022-12-20T10:01:30;11.05;;;2.65;;
37805;SDS011;25082;50.870;0.022;2022-12-20T10:03:58;14.85;;;3.28;;
37805;SDS011;25082;50.870;0.022;2022-12-20T10:06:42;19.40;;;3.47;;
37805;SDS011;25082;50.870;0.022;2022-12-20T10:25:30;17.00;;;2.63;;
37805;SDS011;25082;50.870;0.022;2022-12-20T10:27:57;18.60;;;2.72;;
37805;SDS011;25082;50.870;0.022;2022-12-20T10:30:27;27.88;;;3.65;;
37805;SDS011;25082;50.870;0.022;2022-12-20T10:32:54;13.48;;;2.83;;
37805;SDS011;25082;50.870;0.022;2022-12-20T10:35:23;10.57;;;3.10;;
37805;SDS011;25082;50.870;0.022;2022-12-20T10:40:30;25.70;;;5.35;;
37805;SDS011;25082;50.870;0.022;2022-12-20T10:42:59;20.58;;;3.88;;
37805;SDS011;25082;50.870;0.022;2022-12-20T10:45:35;16.85;;;3.05;;
37805;SDS011;25082;50.870;0.022;2022-12-20T10:48:48;22.20;;;3.63;;
37805;SDS011;25082;50.870;0.022;2022-12-20T10:51:00;22.58;;;4.03;;
37805;SDS011;25082;50.870;0.022;2022-12-20T10:53:32;16.15;;;3.67;;
37805;SDS011;25082;50.870;0.022;2022-12-20T10:58:56;29.48;;;4.63;;
37805;SDS011;25082;50.870;0.022;2022-12-20T11:01:27;38.78;;;6.18;;
37805;SDS011;25082;50.870;0.022;2022-12-20T11:04:03;37.28;;;6.05;;
37805;SDS011;25082;50.870;0.022;2022-12-20T11:11:58;34.13;;;5.70;;
37805;SDS011;25082;50.870;0.022;2022-12-20T11:14:26;41.03;;;6.55;;
37805;SDS011;25082;50.870;0.022;2022-12-20T11:16:53;43.97;;;7.05;;
37805;SDS011;25082;50.870;0.022;2022-12-20T11:22:18;41.05;;;6.57;;
37805;SDS011;25082;50.870;0.022;2022-12-20T11:30:33;56.85;;;8.07;;
37805;SDS011;25082;50.870;0.022;2022-12-20T11:33:16;61.13;;;8.90;;
37805;SDS011;25082;50.870;0.022;2022-12-20T11:39:04;79.65;;;9.63;;
37805;SDS011;25082;50.870;0.022;2022-12-20T11:41:58;58.67;;;9.60;;
37805;SDS011;25082;50.870;0.022;2022-12-20T11:47:51;56.72;;;8.43;;
37805;SDS011;25082;50.870;0.022;2022-12-20T11:52:55;47.15;;;6.65;;
37805;SDS011;25082;50.870;0.022;2022-12-20T11:55:43;60.40;;;7.47;;
37805;SDS011;25082;50.870;0.022;2022-12-20T12:01:14;50.65;;;8.30;;
37805;SDS011;25082;50.870;0.022;2022-12-20T12:06:22;52.13;;;8.65;;
37805;SDS011;25082;50.870;0.022;2022-12-20T12:09:04;51.75;;;7.95;;
37805;SDS011;25082;50.870;0.022;2022-12-20T12:11:47;69.60;;;10.60;;
37805;SDS011;25082;50.870;0.022;2022-12-20T12:14:27;54.03;;;9.23;;
37805;SDS011;25082;50.870;0.022;2022-12-20T12:17:01;44.70;;;7.68;;
37805;SDS011;25082;50.870;0.022;2022-12-20T12:19:33;57.30;;;9.68;;
37805;SDS011;25082;50.870;0.022;2022-12-20T12:22:04;65.65;;;8.70;;
37805;SDS011;25082;50.870;0.022;2022-12-20T12:24:40;49.75;;;8.55;;
37805;SDS011;25082;50.870;0.022;2022-12-20T12:27:21;58.17;;;7.85;;
37805;SDS011;25082;50.870;0.022;2022-12-20T12:29:49;38.53;;;8.45;;
37805;SDS011;25082;50.870;0.022;2022-12-20T12:45:48;33.13;;;6.38;;
37805;SDS011;25082;50.870;0.022;2022-12-20T12:51:03;25.85;;;4.43;;
37805;SDS011;25082;50.870;0.022;2022-12-20T12:53:34;24.50;;;5.45;;
37805;SDS011;25082;50.870;0.022;2022-12-20T13:01:50;23.30;;;5.22;;
37805;SDS011;25082;50.870;0.022;2022-12-20T13:11:50;38.05;;;8.18;;
37805;SDS011;25082;50.870;0.022;2022-12-20T13:16:48;40.25;;;7.65;;
37805;SDS011;25082;50.870;0.022;2022-12-20T13:24:35;33.47;;;7.15;;
37805;SDS011;25082;50.870;0.022;2022-12-20T13:27:17;28.33;;;6.05;;
37805;SDS011;25082;50.870;0.022;2022-12-20T13:40:20;29.20;;;6.43;;
37805;SDS011;25082;50.870;0.022;2022-12-20T13:42:56;33.88;;;6.43;;
37805;SDS011;25082;50.870;0.022;2022-12-20T13:45:27;38.33;;;7.50;;
37805;SDS011;25082;50.870;0.022;2022-12-20T13:47:58;37.72;;;7.60;;
37805;SDS011;25082;50.870;0.022;2022-12-20T13:50:31;29.92;;;7.18;;
37805;SDS011;25082;50.870;0.022;2022-12-20T13:52:59;31.25;;;7.60;;
37805;SDS011;25082;50.870;0.022;2022-12-20T13:55:34;28.08;;;8.43;;
37805;SDS011;25082;50.870;0.022;2022-12-20T13:58:04;30.80;;;10.10;;
37805;SDS011;25082;50.870;0.022;2022-12-20T14:00:34;29.07;;;8.77;;
37805;SDS011;25082;50.870;0.022;2022-12-20T14:03:02;26.50;;;7.13;;
37805;SDS011;25082;50.870;0.022;2022-12-20T14:05:33;25.63;;;6.65;;
37805;SDS011;25082;50.870;0.022;2022-12-20T14:08:09;28.80;;;7.35;;
37805;SDS011;25082;50.870;0.022;2022-12-20T14:10:40;36.33;;;7.45;;
37805;SDS011;25082;50.870;0.022;2022-12-20T14:13:19;45.72;;;9.05;;
37805;SDS011;25082;50.870;0.022;2022-12-20T14:15:48;39.58;;;8.57;;
37805;SDS011;25082;50.870;0.022;2022-12-20T14:18:15;31.50;;;7.53;;
37805;SDS011;25082;50.870;0.022;2022-12-20T14:20:58;39.20;;;7.65;;
37805;SDS011;25082;50.870;0.022;2022-12-20T14:23:28;28.73;;;7.93;;
37805;SDS011;25082;50.870;0.022;2022-12-20T14:26:02;25.98;;;6.60;;
37805;SDS011;25082;50.870;0.022;2022-12-20T14:28:37;21.35;;;6.70;;
37805;SDS011;25082;50.870;0.022;2022-12-20T14:31:07;29.65;;;6.80;;
37805;SDS011;25082;50.870;0.022;2022-12-20T14:33:48;23.40;;;5.20;;
37805;SDS011;25082;50.870;0.022;2022-12-20T14:38:41;25.45;;;6.25;;
37805;SDS011;25082;50.870;0.022;2022-12-20T14:46:32;22.77;;;5.55;;
37805;SDS011;25082;50.870;0.022;2022-12-20T14:54:50;25.13;;;5.47;;
37805;SDS011;25082;50.870;0.022;2022-12-20T14:57:31;26.85;;;6.68;;
37805;SDS011;25082;50.870;0.022;2022-12-20T15:10:39;16.67;;;6.68;;
37805;SDS011;25082;50.870;0.022;2022-12-20T15:13:12;25.38;;;6.68;;
37805;SDS011;25082;50.870;0.022;2022-12-20T15:15:40;19.08;;;6.78;;
37805;SDS011;25082;50.870;0.022;2022-12-20T15:18:13;20.15;;;6.80;;
37805;SDS011;25082;50.870;0.022;2022-12-20T15:20:41;16.52;;;6.50;;
37805;SDS011;25082;50.870;0.022;2022-12-20T15:23:13;18.95;;;6.47;;
37805;SDS011;25082;50.870;0.022;2022-12-20T15:28:11;14.57;;;5.03;;
37805;SDS011;25082;50.870;0.022;2022-12-20T15:30:41;42.35;;;7.57;;
37805;SDS011;25082;50.870;0.022;2022-12-20T15:33:11;33.65;;;6.75;;
37805;SDS011;25082;50.870;0.022;2022-12-20T15:35:43;52.78;;;8.68;;
37805;SDS011;25082;50.870;0.022;2022-12-20T15:38:12;41.92;;;6.70;;
37805;SDS011;25082;50.870;0.022;2022-12-20T15:40:46;35.88;;;6.75;;
37805;SDS011;25082;50.870;0.022;2022-12-20T15:43:15;41.88;;;9.70;;
37805;SDS011;25082;50.870;0.022;2022-12-20T15:45:43;89.78;;;11.52;;
37805;SDS011;25082;50.870;0.022;2022-12-20T15:48:14;71.78;;;10.40;;
37805;SDS011;25082;50.870;0.022;2022-12-20T15:51:05;64.03;;;9.73;;
37805;SDS011;25082;50.870;0.022;2022-12-20T15:53:36;46.88;;;9.02;;
37805;SDS011;25082;50.870;0.022;2022-12-20T15:56:02;50.45;;;8.95;;
37805;SDS011;25082;50.870;0.022;2022-12-20T15:58:28;49.70;;;7.57;;
37805;SDS011;25082;50.870;0.022;2022-12-20T16:00:54;36.08;;;7.30;;
37805;SDS011;25082;50.870;0.022;2022-12-20T16:03:25;50.22;;;8.27;;
37805;SDS011;25082;50.870;0.022;2022-12-20T16:05:54;41.58;;;7.47;;
37805;SDS011;25082;50.870;0.022;2022-12-20T16:08:20;35.63;;;6.97;;
37805;SDS011;25082;50.870;0.022;2022-12-20T16:10:47;28.55;;;6.35;;
37805;SDS011;25082;50.870;0.022;2022-12-20T16:13:15;34.35;;;7.78;;
37805;SDS011;25082;50.870;0.022;2022-12-20T16:15:48;28.88;;;5.38;;
37805;SDS011;25082;50.870;0.022;2022-12-20T16:18:14;26.77;;;5.55;;
37805;SDS011;25082;50.870;0.022;2022-12-20T16:20:40;36.35;;;7.05;;
37805;SDS011;25082;50.870;0.022;2022-12-20T16:23:19;22.17;;;5.32;;
37805;SDS011;25082;50.870;0.022;2022-12-20T16:25:48;29.88;;;5.43;;
37805;SDS011;25082;50.870;0.022;2022-12-20T16:28:15;34.88;;;6.40;;
37805;SDS011;25082;50.870;0.022;2022-12-20T16:30:41;36.08;;;5.95;;
37805;SDS011;25082;50.870;0.022;2022-12-20T16:33:20;28.00;;;6.28;;
37805;SDS011;25082;50.870;0.022;2022-12-20T16:35:46;22.48;;;7.13;;
37805;SDS011;25082;50.870;0.022;2022-12-20T16:38:12;30.02;;;5.80;;
37805;SDS011;25082;50.870;0.022;2022-12-20T16:40:37;25.85;;;5.57;;
37805;SDS011;25082;50.870;0.022;2022-12-20T16:43:03;24.70;;;5.28;;
37805;SDS011;25082;50.870;0.022;2022-12-20T16:45:30;25.40;;;6.05;;
37805;SDS011;25082;50.870;0.022;2022-12-20T16:47:57;21.98;;;5.78;;
37805;SDS011;25082;50.870;0.022;2022-12-20T16:50:24;23.65;;;6.00;;
37805;SDS011;25082;50.870;0.022;2022-12-20T16:52:51;24.25;;;4.68;;
37805;SDS011;25082;50.870;0.022;2022-12-20T16:55:21;20.42;;;5.18;;
37805;SDS011;25082;50.870;0.022;2022-12-20T16:57:50;23.02;;;5.05;;
37805;SDS011;25082;50.870;0.022;2022-12-20T17:00:23;16.25;;;4.07;;
37805;SDS011;25082;50.870;0.022;2022-12-20T17:02:51;22.63;;;4.82;;
37805;SDS011;25082;50.870;0.022;2022-12-20T17:05:19;20.60;;;5.25;;
37805;SDS011;25082;50.870;0.022;2022-12-20T17:07:51;18.35;;;4.78;;
37805;SDS011;25082;50.870;0.022;2022-12-20T17:10:17;15.68;;;4.68;;
37805;SDS011;25082;50.870;0.022;2022-12-20T17:12:43;18.00;;;3.92;;
37805;SDS011;25082;50.870;0.022;2022-12-20T17:18:04;15.27;;;4.55;;
37805;SDS011;25082;50.870;0.022;2022-12-20T17:20:30;15.43;;;6.13;;